sensor_id;sensor_type;location;lat;lon;timestamp;temperature;humidity
728;DHT22;347;48.780;9.158;2022-10-16T00:00:30;17.70;50.20
728;DHT22;347;48.780;9.158;2022-10-16T00:02:56;17.70;50.50
728;DHT22;347;48.780;9.158;2022-10-16T00:05:22;17.60;49.70
728;DHT22;347;48.780;9.158;2022-10-16T00:07:47;17.60;50.20
728;DHT22;347;48.780;9.158;2022-10-16T00:10:13;17.60;50.60
728;DHT22;347;48.780;9.158;2022-10-16T00:12:39;17.70;50.50
728;DHT22;347;48.780;9.158;2022-10-16T00:15:05;17.70;50.40
728;DHT22;347;48.780;9.158;2022-10-16T00:17:31;17.60;49.50
728;DHT22;347;48.780;9.158;2022-10-16T00:19:57;17.60;50.00
728;DHT22;347;48.780;9.158;2022-10-16T00:22:23;17.50;50.50
728;DHT22;347;48.780;9.158;2022-10-16T00:24:49;17.60;50.50
728;DHT22;347;48.780;9.158;2022-10-16T00:27:15;17.60;50.70
728;DHT22;347;48.780;9.158;2022-10-16T00:29:40;17.60;50.70
728;DHT22;347;48.780;9.158;2022-10-16T00:32:06;17.60;50.70
728;DHT22;347;48.780;9.158;2022-10-16T00:34:31;17.60;50.40
728;DHT22;347;48.780;9.158;2022-10-16T00:36:57;17.70;50.20
728;DHT22;347;48.780;9.158;2022-10-16T00:39:23;17.60;50.00
728;DHT22;347;48.780;9.158;2022-10-16T00:41:49;17.60;50.10
728;DHT22;347;48.780;9.158;2022-10-16T00:45:07;17.60;50.10
728;DHT22;347;48.780;9.158;2022-10-16T00:47:37;17.60;50.20
728;DHT22;347;48.780;9.158;2022-10-16T00:50:36;17.70;50.40
728;DHT22;347;48.780;9.158;2022-10-16T00:53:03;17.70;50.40
728;DHT22;347;48.780;9.158;2022-10-16T00:55:28;17.60;50.20
728;DHT22;347;48.780;9.158;2022-10-16T00:57:56;17.60;50.50
728;DHT22;347;48.780;9.158;2022-10-16T01:00:25;17.60;50.20
728;DHT22;347;48.780;9.158;2022-10-16T01:02:58;17.60;50.40
728;DHT22;347;48.780;9.158;2022-10-16T01:05:58;17.60;50.50
728;DHT22;347;48.780;9.158;2022-10-16T01:08:34;17.60;50.70
728;DHT22;347;48.780;9.158;2022-10-16T01:11:24;17.60;50.60
728;DHT22;347;48.780;9.158;2022-10-16T01:13:58;17.60;50.70
728;DHT22;347;48.780;9.158;2022-10-16T01:16:37;17.60;50.60
728;DHT22;347;48.780;9.158;2022-10-16T01:22:21;17.60;50.80
728;DHT22;347;48.780;9.158;2022-10-16T01:24:54;17.60;50.70
728;DHT22;347;48.780;9.158;2022-10-16T01:27:22;17.60;51.00
728;DHT22;347;48.780;9.158;2022-10-16T01:30:04;17.60;51.00
728;DHT22;347;48.780;9.158;2022-10-16T01:35:35;17.60;50.30
728;DHT22;347;48.780;9.158;2022-10-16T01:38:07;17.60;50.30
728;DHT22;347;48.780;9.158;2022-10-16T01:40:36;17.60;50.50
728;DHT22;347;48.780;9.158;2022-10-16T01:43:09;17.60;50.40
728;DHT22;347;48.780;9.158;2022-10-16T01:45:36;17.60;50.20
728;DHT22;347;48.780;9.158;2022-10-16T01:48:04;17.60;50.40
728;DHT22;347;48.780;9.158;2022-10-16T01:50:36;17.60;50.50
728;DHT22;347;48.780;9.158;2022-10-16T01:53:03;17.60;50.30
728;DHT22;347;48.780;9.158;2022-10-16T01:55:36;17.60;50.40
728;DHT22;347;48.780;9.158;2022-10-16T01:58:05;17.60;50.20
728;DHT22;347;48.780;9.158;2022-10-16T02:00:32;17.60;50.10
728;DHT22;347;48.780;9.158;2022-10-16T02:02:58;17.60;50.20
728;DHT22;347;48.780;9.158;2022-10-16T02:07:58;17.60;49.70
728;DHT22;347;48.780;9.158;2022-10-16T02:10:25;17.60;49.50
728;DHT22;347;48.780;9.158;2022-10-16T02:12:58;17.70;49.50
728;DHT22;347;48.780;9.158;2022-10-16T02:15:24;17.60;49.20
728;DHT22;347;48.780;9.158;2022-10-16T02:17:50;17.60;49.80
728;DHT22;347;48.780;9.158;2022-10-16T02:20:16;17.60;50.10
728;DHT22;347;48.780;9.158;2022-10-16T02:22:47;17.70;49.50
728;DHT22;347;48.780;9.158;2022-10-16T02:27:55;17.70;49.10
728;DHT22;347;48.780;9.158;2022-10-16T02:32:52;17.60;49.70
728;DHT22;347;48.780;9.158;2022-10-16T02:35:20;17.60;49.80
728;DHT22;347;48.780;9.158;2022-10-16T02:37:49;17.60;49.00
728;DHT22;347;48.780;9.158;2022-10-16T02:40:17;17.50;48.80
728;DHT22;347;48.780;9.158;2022-10-16T02:42:43;17.50;49.70
728;DHT22;347;48.780;9.158;2022-10-16T02:45:10;17.50;50.00
728;DHT22;347;48.780;9.158;2022-10-16T02:47:36;17.60;49.80
728;DHT22;347;48.780;9.158;2022-10-16T02:50:02;17.60;50.00
728;DHT22;347;48.780;9.158;2022-10-16T02:52:28;17.60;50.00
728;DHT22;347;48.780;9.158;2022-10-16T02:54:54;17.60;49.80
728;DHT22;347;48.780;9.158;2022-10-16T02:57:19;17.60;49.70
728;DHT22;347;48.780;9.158;2022-10-16T02:59:45;17.50;49.20
728;DHT22;347;48.780;9.158;2022-10-16T03:02:11;17.60;49.70
728;DHT22;347;48.780;9.158;2022-10-16T03:04:37;17.40;48.60
728;DHT22;347;48.780;9.158;2022-10-16T03:07:03;17.40;49.00
728;DHT22;347;48.780;9.158;2022-10-16T03:09:28;17.40;48.80
728;DHT22;347;48.780;9.158;2022-10-16T03:11:54;17.40;48.80
728;DHT22;347;48.780;9.158;2022-10-16T03:14:20;17.30;49.10
728;DHT22;347;48.780;9.158;2022-10-16T03:16:45;17.30;49.00
728;DHT22;347;48.780;9.158;2022-10-16T03:19:11;17.20;49.20
728;DHT22;347;48.780;9.158;2022-10-16T03:21:37;17.30;49.60
728;DHT22;347;48.780;9.158;2022-10-16T03:24:02;17.30;49.70
728;DHT22;347;48.780;9.158;2022-10-16T03:26:28;17.40;49.90
728;DHT22;347;48.780;9.158;2022-10-16T03:28:54;17.40;49.70
728;DHT22;347;48.780;9.158;2022-10-16T03:31:19;17.50;49.80
728;DHT22;347;48.780;9.158;2022-10-16T03:33:45;17.60;49.40
728;DHT22;347;48.780;9.158;2022-10-16T03:36:10;17.60;49.20
728;DHT22;347;48.780;9.158;2022-10-16T03:38:36;17.60;49.20
728;DHT22;347;48.780;9.158;2022-10-16T03:41:02;17.60;48.70
728;DHT22;347;48.780;9.158;2022-10-16T03:43:28;17.60;48.30
728;DHT22;347;48.780;9.158;2022-10-16T03:45:54;17.60;48.80
728;DHT22;347;48.780;9.158;2022-10-16T03:48:19;17.60;48.30
728;DHT22;347;48.780;9.158;2022-10-16T03:50:45;17.60;48.30
728;DHT22;347;48.780;9.158;2022-10-16T03:53:14;17.60;48.30
728;DHT22;347;48.780;9.158;2022-10-16T03:55:41;17.70;48.40
728;DHT22;347;48.780;9.158;2022-10-16T03:58:07;17.60;48.30
728;DHT22;347;48.780;9.158;2022-10-16T04:00:33;17.60;48.90
728;DHT22;347;48.780;9.158;2022-10-16T04:02:59;17.60;48.70
728;DHT22;347;48.780;9.158;2022-10-16T04:05:25;17.50;49.20
728;DHT22;347;48.780;9.158;2022-10-16T04:07:51;17.60;48.70
728;DHT22;347;48.780;9.158;2022-10-16T04:10:16;17.60;48.80
728;DHT22;347;48.780;9.158;2022-10-16T04:12:42;17.60;48.50
728;DHT22;347;48.780;9.158;2022-10-16T04:15:08;17.50;49.40
728;DHT22;347;48.780;9.158;2022-10-16T04:17:34;17.50;48.90
728;DHT22;347;48.780;9.158;2022-10-16T04:19:59;17.60;49.70
728;DHT22;347;48.780;9.158;2022-10-16T04:22:25;17.60;49.60
728;DHT22;347;48.780;9.158;2022-10-16T04:24:51;17.60;49.70
728;DHT22;347;48.780;9.158;2022-10-16T04:27:16;17.50;49.80
728;DHT22;347;48.780;9.158;2022-10-16T04:29:42;17.60;49.90
728;DHT22;347;48.780;9.158;2022-10-16T04:32:08;17.60;50.00
728;DHT22;347;48.780;9.158;2022-10-16T04:34:34;17.60;50.20
728;DHT22;347;48.780;9.158;2022-10-16T04:37:00;17.60;50.20
728;DHT22;347;48.780;9.158;2022-10-16T04:39:26;17.60;49.90
728;DHT22;347;48.780;9.158;2022-10-16T04:41:51;17.60;49.90
728;DHT22;347;48.780;9.158;2022-10-16T04:44:17;17.50;50.00
728;DHT22;347;48.780;9.158;2022-10-16T04:46:43;17.50;50.20
728;DHT22;347;48.780;9.158;2022-10-16T04:49:09;17.50;50.10
728;DHT22;347;48.780;9.158;2022-10-16T04:51:35;17.50;50.20
728;DHT22;347;48.780;9.158;2022-10-16T04:54:01;17.50;49.80
728;DHT22;347;48.780;9.158;2022-10-16T04:56:26;17.50;50.00
728;DHT22;347;48.780;9.158;2022-10-16T04:58:52;17.60;49.90
728;DHT22;347;48.780;9.158;2022-10-16T05:01:18;17.60;50.00
728;DHT22;347;48.780;9.158;2022-10-16T05:03:43;17.60;49.90
728;DHT22;347;48.780;9.158;2022-10-16T05:06:09;17.60;49.70
728;DHT22;347;48.780;9.158;2022-10-16T05:08:35;17.50;49.70
728;DHT22;347;48.780;9.158;2022-10-16T05:11:00;17.50;49.60
728;DHT22;347;48.780;9.158;2022-10-16T05:13:26;17.50;49.60
728;DHT22;347;48.780;9.158;2022-10-16T05:15:52;17.50;50.00
728;DHT22;347;48.780;9.158;2022-10-16T05:18:18;17.50;50.00
728;DHT22;347;48.780;9.158;2022-10-16T05:20:43;17.50;50.20
728;DHT22;347;48.780;9.158;2022-10-16T05:23:09;17.50;50.10
728;DHT22;347;48.780;9.158;2022-10-16T05:25:38;17.50;50.20
728;DHT22;347;48.780;9.158;2022-10-16T05:28:04;17.50;50.60
728;DHT22;347;48.780;9.158;2022-10-16T05:30:29;17.50;50.80
728;DHT22;347;48.780;9.158;2022-10-16T05:32:55;17.50;50.80
728;DHT22;347;48.780;9.158;2022-10-16T05:35:21;17.50;50.70
728;DHT22;347;48.780;9.158;2022-10-16T05:37:47;17.50;50.80
728;DHT22;347;48.780;9.158;2022-10-16T05:40:13;17.50;50.60
728;DHT22;347;48.780;9.158;2022-10-16T05:42:40;17.40;50.50
728;DHT22;347;48.780;9.158;2022-10-16T05:45:07;17.40;50.50
728;DHT22;347;48.780;9.158;2022-10-16T05:47:34;17.40;50.50
728;DHT22;347;48.780;9.158;2022-10-16T05:50:00;17.30;50.60
728;DHT22;347;48.780;9.158;2022-10-16T05:52:27;17.30;50.50
728;DHT22;347;48.780;9.158;2022-10-16T05:54:52;17.30;50.50
728;DHT22;347;48.780;9.158;2022-10-16T05:57:18;17.30;51.10
728;DHT22;347;48.780;9.158;2022-10-16T05:59:43;17.20;50.90
728;DHT22;347;48.780;9.158;2022-10-16T06:02:16;17.30;51.20
728;DHT22;347;48.780;9.158;2022-10-16T06:04:41;17.30;51.00
728;DHT22;347;48.780;9.158;2022-10-16T06:07:07;17.30;51.00
728;DHT22;347;48.780;9.158;2022-10-16T06:09:33;17.30;50.50
728;DHT22;347;48.780;9.158;2022-10-16T06:11:58;17.30;50.90
728;DHT22;347;48.780;9.158;2022-10-16T06:14:24;17.30;50.80
728;DHT22;347;48.780;9.158;2022-10-16T06:16:50;17.30;50.70
728;DHT22;347;48.780;9.158;2022-10-16T06:19:16;17.40;50.80
728;DHT22;347;48.780;9.158;2022-10-16T06:21:42;17.30;50.60
728;DHT22;347;48.780;9.158;2022-10-16T06:24:09;17.40;51.00
728;DHT22;347;48.780;9.158;2022-10-16T06:26:34;17.40;51.10
728;DHT22;347;48.780;9.158;2022-10-16T06:29:00;17.40;51.10
728;DHT22;347;48.780;9.158;2022-10-16T06:31:28;17.50;51.10
728;DHT22;347;48.780;9.158;2022-10-16T06:33:56;17.50;50.70
728;DHT22;347;48.780;9.158;2022-10-16T06:36:23;17.50;50.60
728;DHT22;347;48.780;9.158;2022-10-16T06:38:50;17.50;50.70
728;DHT22;347;48.780;9.158;2022-10-16T06:41:18;17.50;50.70
728;DHT22;347;48.780;9.158;2022-10-16T06:43:44;17.50;50.70
728;DHT22;347;48.780;9.158;2022-10-16T06:46:12;17.50;50.60
728;DHT22;347;48.780;9.158;2022-10-16T06:48:38;17.50;50.60
728;DHT22;347;48.780;9.158;2022-10-16T06:51:05;17.60;50.80
728;DHT22;347;48.780;9.158;2022-10-16T06:53:33;17.60;50.90
728;DHT22;347;48.780;9.158;2022-10-16T06:56:10;17.60;50.80
728;DHT22;347;48.780;9.158;2022-10-16T06:58:36;17.60;50.90
728;DHT22;347;48.780;9.158;2022-10-16T07:01:03;17.60;50.80
728;DHT22;347;48.780;9.158;2022-10-16T07:03:28;17.60;50.80
728;DHT22;347;48.780;9.158;2022-10-16T07:05:54;17.60;50.60
728;DHT22;347;48.780;9.158;2022-10-16T07:08:20;17.60;50.70
728;DHT22;347;48.780;9.158;2022-10-16T07:10:45;17.60;50.90
728;DHT22;347;48.780;9.158;2022-10-16T07:13:11;17.60;50.40
728;DHT22;347;48.780;9.158;2022-10-16T07:15:40;17.70;50.70
728;DHT22;347;48.780;9.158;2022-10-16T07:18:06;17.70;50.40
728;DHT22;347;48.780;9.158;2022-10-16T07:20:32;17.70;50.00
728;DHT22;347;48.780;9.158;2022-10-16T07:22:58;17.80;50.00
728;DHT22;347;48.780;9.158;2022-10-16T07:25:24;17.80;50.50
728;DHT22;347;48.780;9.158;2022-10-16T07:27:49;17.80;50.00
728;DHT22;347;48.780;9.158;2022-10-16T07:30:15;17.80;49.70
728;DHT22;347;48.780;9.158;2022-10-16T07:32:41;17.80;49.70
728;DHT22;347;48.780;9.158;2022-10-16T07:35:07;17.80;49.70
728;DHT22;347;48.780;9.158;2022-10-16T07:37:32;17.90;49.90
728;DHT22;347;48.780;9.158;2022-10-16T07:39:58;17.90;50.30
728;DHT22;347;48.780;9.158;2022-10-16T07:42:24;17.80;50.80
728;DHT22;347;48.780;9.158;2022-10-16T07:44:49;17.90;50.70
728;DHT22;347;48.780;9.158;2022-10-16T07:47:15;17.90;50.50
728;DHT22;347;48.780;9.158;2022-10-16T07:49:40;17.90;50.70
728;DHT22;347;48.780;9.158;2022-10-16T07:52:07;17.90;51.00
728;DHT22;347;48.780;9.158;2022-10-16T07:54:32;17.90;50.80
728;DHT22;347;48.780;9.158;2022-10-16T07:56:58;17.90;50.50
728;DHT22;347;48.780;9.158;2022-10-16T07:59:23;17.90;50.50
728;DHT22;347;48.780;9.158;2022-10-16T08:01:50;17.90;49.80
728;DHT22;347;48.780;9.158;2022-10-16T08:04:15;17.90;50.10
728;DHT22;347;48.780;9.158;2022-10-16T08:06:41;17.90;50.30
728;DHT22;347;48.780;9.158;2022-10-16T08:09:07;18.00;50.60
728;DHT22;347;48.780;9.158;2022-10-16T08:11:34;18.00;50.20
728;DHT22;347;48.780;9.158;2022-10-16T08:14:00;18.00;50.00
728;DHT22;347;48.780;9.158;2022-10-16T08:16:25;18.00;50.50
728;DHT22;347;48.780;9.158;2022-10-16T08:18:51;18.00;49.50
728;DHT22;347;48.780;9.158;2022-10-16T08:21:19;18.10;50.50
728;DHT22;347;48.780;9.158;2022-10-16T08:23:45;18.10;49.40
728;DHT22;347;48.780;9.158;2022-10-16T08:26:11;18.10;49.50
728;DHT22;347;48.780;9.158;2022-10-16T08:28:37;18.10;49.00
728;DHT22;347;48.780;9.158;2022-10-16T08:31:15;18.10;46.00
728;DHT22;347;48.780;9.158;2022-10-16T08:33:43;18.10;46.20
728;DHT22;347;48.780;9.158;2022-10-16T08:36:10;18.10;46.20
728;DHT22;347;48.780;9.158;2022-10-16T08:38:36;18.10;45.90
728;DHT22;347;48.780;9.158;2022-10-16T08:49:11;18.20;45.70
728;DHT22;347;48.780;9.158;2022-10-16T08:51:39;18.20;45.70
728;DHT22;347;48.780;9.158;2022-10-16T08:56:44;18.20;46.00
728;DHT22;347;48.780;9.158;2022-10-16T08:59:20;18.20;46.10
728;DHT22;347;48.780;9.158;2022-10-16T09:01:49;18.20;46.40
728;DHT22;347;48.780;9.158;2022-10-16T09:07:08;18.20;46.40
728;DHT22;347;48.780;9.158;2022-10-16T09:09:56;18.20;46.20
728;DHT22;347;48.780;9.158;2022-10-16T09:15:29;18.30;46.10
728;DHT22;347;48.780;9.158;2022-10-16T09:18:15;18.40;46.00
728;DHT22;347;48.780;9.158;2022-10-16T09:23:40;18.40;45.70
728;DHT22;347;48.780;9.158;2022-10-16T09:26:11;18.50;46.70
728;DHT22;347;48.780;9.158;2022-10-16T09:28:37;18.60;43.50
728;DHT22;347;48.780;9.158;2022-10-16T09:31:03;18.60;43.10
728;DHT22;347;48.780;9.158;2022-10-16T09:33:39;18.70;42.90
728;DHT22;347;48.780;9.158;2022-10-16T09:36:06;18.70;42.50
728;DHT22;347;48.780;9.158;2022-10-16T09:38:34;18.80;42.00
728;DHT22;347;48.780;9.158;2022-10-16T09:41:13;18.80;41.40
728;DHT22;347;48.780;9.158;2022-10-16T09:43:46;18.80;41.60
728;DHT22;347;48.780;9.158;2022-10-16T09:46:31;18.90;41.90
728;DHT22;347;48.780;9.158;2022-10-16T09:49:05;18.90;41.90
728;DHT22;347;48.780;9.158;2022-10-16T09:51:32;19.00;41.90
728;DHT22;347;48.780;9.158;2022-10-16T09:54:11;19.00;41.80
728;DHT22;347;48.780;9.158;2022-10-16T09:56:39;19.10;41.80
728;DHT22;347;48.780;9.158;2022-10-16T09:59:16;19.10;41.60
728;DHT22;347;48.780;9.158;2022-10-16T10:01:49;19.20;41.30
728;DHT22;347;48.780;9.158;2022-10-16T10:04:20;19.30;39.80
728;DHT22;347;48.780;9.158;2022-10-16T10:06:51;19.40;39.80
728;DHT22;347;48.780;9.158;2022-10-16T10:09:27;19.40;39.80
728;DHT22;347;48.780;9.158;2022-10-16T10:11:54;19.50;40.50
728;DHT22;347;48.780;9.158;2022-10-16T10:14:38;19.50;40.60
728;DHT22;347;48.780;9.158;2022-10-16T10:19:39;19.70;37.50
728;DHT22;347;48.780;9.158;2022-10-16T10:35:48;20.20;34.80
728;DHT22;347;48.780;9.158;2022-10-16T10:55:01;20.40;35.80
728;DHT22;347;48.780;9.158;2022-10-16T10:57:49;20.50;35.60
728;DHT22;347;48.780;9.158;2022-10-16T11:06:05;20.60;35.80
728;DHT22;347;48.780;9.158;2022-10-16T11:08:36;20.70;36.80
728;DHT22;347;48.780;9.158;2022-10-16T11:16:21;20.60;36.70
728;DHT22;347;48.780;9.158;2022-10-16T11:18:55;20.60;37.20
728;DHT22;347;48.780;9.158;2022-10-16T11:21:23;20.60;37.40
728;DHT22;347;48.780;9.158;2022-10-16T11:26:41;20.60;36.60
728;DHT22;347;48.780;9.158;2022-10-16T11:29:20;20.70;36.70
728;DHT22;347;48.780;9.158;2022-10-16T11:31:55;20.60;36.80
728;DHT22;347;48.780;9.158;2022-10-16T11:37:02;20.60;35.70
728;DHT22;347;48.780;9.158;2022-10-16T11:39:30;20.60;36.50
728;DHT22;347;48.780;9.158;2022-10-16T11:42:09;20.60;36.80
728;DHT22;347;48.780;9.158;2022-10-16T11:44:53;20.60;37.40
728;DHT22;347;48.780;9.158;2022-10-16T11:47:48;20.50;38.00
728;DHT22;347;48.780;9.158;2022-10-16T11:50:25;20.50;38.80
728;DHT22;347;48.780;9.158;2022-10-16T11:53:37;20.60;38.10
728;DHT22;347;48.780;9.158;2022-10-16T11:56:05;20.70;36.80
728;DHT22;347;48.780;9.158;2022-10-16T12:01:30;20.70;36.10
728;DHT22;347;48.780;9.158;2022-10-16T12:06:55;20.90;31.10
728;DHT22;347;48.780;9.158;2022-10-16T12:09:27;21.00;30.50
728;DHT22;347;48.780;9.158;2022-10-16T12:11:53;21.20;29.60
728;DHT22;347;48.780;9.158;2022-10-16T12:14:37;21.30;30.80
728;DHT22;347;48.780;9.158;2022-10-16T12:17:43;21.50;29.40
728;DHT22;347;48.780;9.158;2022-10-16T12:25:29;21.50;30.80
728;DHT22;347;48.780;9.158;2022-10-16T12:28:15;21.40;31.10
728;DHT22;347;48.780;9.158;2022-10-16T12:30:44;21.40;31.10
728;DHT22;347;48.780;9.158;2022-10-16T12:33:56;21.40;31.10
728;DHT22;347;48.780;9.158;2022-10-16T12:36:34;21.40;31.10
728;DHT22;347;48.780;9.158;2022-10-16T12:39:01;21.40;31.50
728;DHT22;347;48.780;9.158;2022-10-16T12:41:32;21.40;31.40
728;DHT22;347;48.780;9.158;2022-10-16T12:43:59;21.40;31.70
728;DHT22;347;48.780;9.158;2022-10-16T12:51:40;21.40;31.10
728;DHT22;347;48.780;9.158;2022-10-16T13:05:38;21.30;32.20
728;DHT22;347;48.780;9.158;2022-10-16T13:21:51;21.10;32.70
728;DHT22;347;48.780;9.158;2022-10-16T13:27:35;21.10;33.90
728;DHT22;347;48.780;9.158;2022-10-16T13:30:16;21.10;33.80
728;DHT22;347;48.780;9.158;2022-10-16T13:33:30;21.10;33.50
728;DHT22;347;48.780;9.158;2022-10-16T13:35:53;21.10;32.70
728;DHT22;347;48.780;9.158;2022-10-16T13:38:25;21.10;32.60
728;DHT22;347;48.780;9.158;2022-10-16T13:43:31;21.20;32.20
728;DHT22;347;48.780;9.158;2022-10-16T13:48:31;21.20;33.00
728;DHT22;347;48.780;9.158;2022-10-16T13:51:01;21.20;34.90
728;DHT22;347;48.780;9.158;2022-10-16T13:53:29;21.10;35.70
728;DHT22;347;48.780;9.158;2022-10-16T13:55:55;21.00;36.90
728;DHT22;347;48.780;9.158;2022-10-16T13:58:22;21.00;35.80
728;DHT22;347;48.780;9.158;2022-10-16T14:00:58;21.00;34.70
728;DHT22;347;48.780;9.158;2022-10-16T14:03:26;21.00;34.90
728;DHT22;347;48.780;9.158;2022-10-16T14:05:55;20.90;35.90
728;DHT22;347;48.780;9.158;2022-10-16T14:08:22;20.90;36.00
728;DHT22;347;48.780;9.158;2022-10-16T14:10:51;20.90;35.90
728;DHT22;347;48.780;9.158;2022-10-16T14:13:19;20.90;35.90
728;DHT22;347;48.780;9.158;2022-10-16T14:15:51;20.90;36.00
728;DHT22;347;48.780;9.158;2022-10-16T14:18:23;20.80;35.70
728;DHT22;347;48.780;9.158;2022-10-16T14:20:49;20.80;35.70
728;DHT22;347;48.780;9.158;2022-10-16T14:23:28;20.80;35.60
728;DHT22;347;48.780;9.158;2022-10-16T14:26:04;20.80;36.20
728;DHT22;347;48.780;9.158;2022-10-16T14:28:30;20.80;36.60
728;DHT22;347;48.780;9.158;2022-10-16T14:30:58;20.80;36.10
728;DHT22;347;48.780;9.158;2022-10-16T14:33:33;20.80;34.00
728;DHT22;347;48.780;9.158;2022-10-16T14:36:05;20.90;34.00
728;DHT22;347;48.780;9.158;2022-10-16T14:38:32;20.90;35.00
728;DHT22;347;48.780;9.158;2022-10-16T14:40:59;20.90;32.90
728;DHT22;347;48.780;9.158;2022-10-16T14:45:57;20.90;35.00
728;DHT22;347;48.780;9.158;2022-10-16T14:48:23;20.80;35.80
728;DHT22;347;48.780;9.158;2022-10-16T14:50:49;20.80;37.10
728;DHT22;347;48.780;9.158;2022-10-16T14:53:15;20.80;36.70
728;DHT22;347;48.780;9.158;2022-10-16T14:55:42;20.80;36.30
728;DHT22;347;48.780;9.158;2022-10-16T14:58:16;20.80;36.90
728;DHT22;347;48.780;9.158;2022-10-16T15:00:42;20.70;36.10
728;DHT22;347;48.780;9.158;2022-10-16T15:03:08;20.70;35.10
728;DHT22;347;48.780;9.158;2022-10-16T15:05:34;20.80;35.50
728;DHT22;347;48.780;9.158;2022-10-16T15:07:59;20.80;35.00
728;DHT22;347;48.780;9.158;2022-10-16T15:10:27;20.90;35.10
728;DHT22;347;48.780;9.158;2022-10-16T15:12:54;20.90;35.50
728;DHT22;347;48.780;9.158;2022-10-16T15:17:53;20.90;35.90
728;DHT22;347;48.780;9.158;2022-10-16T15:20:25;20.90;36.30
728;DHT22;347;48.780;9.158;2022-10-16T15:22:51;20.80;37.10
728;DHT22;347;48.780;9.158;2022-10-16T15:27:48;20.90;37.50
728;DHT22;347;48.780;9.158;2022-10-16T15:30:14;20.90;38.20
728;DHT22;347;48.780;9.158;2022-10-16T15:32:39;20.90;38.30
728;DHT22;347;48.780;9.158;2022-10-16T15:35:08;20.80;38.70
728;DHT22;347;48.780;9.158;2022-10-16T15:37:34;20.80;38.90
728;DHT22;347;48.780;9.158;2022-10-16T15:39:59;20.70;39.20
728;DHT22;347;48.780;9.158;2022-10-16T15:42:25;20.70;39.50
728;DHT22;347;48.780;9.158;2022-10-16T15:44:51;20.70;39.60
728;DHT22;347;48.780;9.158;2022-10-16T15:47:16;20.60;39.60
728;DHT22;347;48.780;9.158;2022-10-16T15:49:42;20.60;39.60
728;DHT22;347;48.780;9.158;2022-10-16T15:52:07;20.60;39.90
728;DHT22;347;48.780;9.158;2022-10-16T15:54:33;20.60;40.80
728;DHT22;347;48.780;9.158;2022-10-16T15:56:59;20.60;40.80
728;DHT22;347;48.780;9.158;2022-10-16T15:59:24;20.60;40.80
728;DHT22;347;48.780;9.158;2022-10-16T16:01:50;20.50;40.80
728;DHT22;347;48.780;9.158;2022-10-16T16:04:15;20.60;40.80
728;DHT22;347;48.780;9.158;2022-10-16T16:06:42;20.50;41.00
728;DHT22;347;48.780;9.158;2022-10-16T16:09:10;20.50;41.50
728;DHT22;347;48.780;9.158;2022-10-16T16:11:37;20.40;41.70
728;DHT22;347;48.780;9.158;2022-10-16T16:14:05;20.40;42.10
728;DHT22;347;48.780;9.158;2022-10-16T16:16:30;20.40;42.50
728;DHT22;347;48.780;9.158;2022-10-16T16:18:58;20.40;43.20
728;DHT22;347;48.780;9.158;2022-10-16T16:21:24;20.40;44.40
728;DHT22;347;48.780;9.158;2022-10-16T16:23:50;20.30;43.70
728;DHT22;347;48.780;9.158;2022-10-16T16:26:28;20.30;43.90
728;DHT22;347;48.780;9.158;2022-10-16T16:29:01;20.20;44.00
728;DHT22;347;48.780;9.158;2022-10-16T16:31:29;20.10;44.50
728;DHT22;347;48.780;9.158;2022-10-16T16:34:12;20.10;44.90
728;DHT22;347;48.780;9.158;2022-10-16T16:36:40;20.10;45.40
728;DHT22;347;48.780;9.158;2022-10-16T16:39:07;20.00;45.50
728;DHT22;347;48.780;9.158;2022-10-16T16:41:33;19.90;45.90
728;DHT22;347;48.780;9.158;2022-10-16T16:44:05;19.90;46.20
728;DHT22;347;48.780;9.158;2022-10-16T16:46:32;19.90;46.50
728;DHT22;347;48.780;9.158;2022-10-16T16:48:58;19.90;46.80
728;DHT22;347;48.780;9.158;2022-10-16T16:51:24;19.80;47.10
728;DHT22;347;48.780;9.158;2022-10-16T16:53:51;19.80;47.20
728;DHT22;347;48.780;9.158;2022-10-16T16:56:18;19.70;47.40
728;DHT22;347;48.780;9.158;2022-10-16T16:58:53;19.70;47.70
728;DHT22;347;48.780;9.158;2022-10-16T17:01:20;19.70;47.80
728;DHT22;347;48.780;9.158;2022-10-16T17:03:47;19.70;47.90
728;DHT22;347;48.780;9.158;2022-10-16T17:06:15;19.70;48.20
728;DHT22;347;48.780;9.158;2022-10-16T17:08:42;19.60;48.20
728;DHT22;347;48.780;9.158;2022-10-16T17:11:19;19.60;48.20
728;DHT22;347;48.780;9.158;2022-10-16T17:13:45;19.60;48.30
728;DHT22;347;48.780;9.158;2022-10-16T17:16:11;19.60;48.40
728;DHT22;347;48.780;9.158;2022-10-16T17:18:37;19.60;48.40
728;DHT22;347;48.780;9.158;2022-10-16T17:21:05;19.50;48.20
728;DHT22;347;48.780;9.158;2022-10-16T17:23:31;19.50;48.40
728;DHT22;347;48.780;9.158;2022-10-16T17:26:10;19.50;48.40
728;DHT22;347;48.780;9.158;2022-10-16T17:28:36;19.50;48.50
728;DHT22;347;48.780;9.158;2022-10-16T17:33:38;19.40;48.90
728;DHT22;347;48.780;9.158;2022-10-16T17:36:04;19.40;49.00
728;DHT22;347;48.780;9.158;2022-10-16T17:38:30;19.30;48.90
728;DHT22;347;48.780;9.158;2022-10-16T17:40:56;19.30;48.80
728;DHT22;347;48.780;9.158;2022-10-16T17:43:22;19.30;48.70
728;DHT22;347;48.780;9.158;2022-10-16T17:45:47;19.30;48.70
728;DHT22;347;48.780;9.158;2022-10-16T17:48:13;19.30;48.70
728;DHT22;347;48.780;9.158;2022-10-16T17:50:40;19.20;48.70
728;DHT22;347;48.780;9.158;2022-10-16T17:53:06;19.20;48.40
728;DHT22;347;48.780;9.158;2022-10-16T17:55:37;19.10;48.30
728;DHT22;347;48.780;9.158;2022-10-16T17:58:03;19.10;48.40
728;DHT22;347;48.780;9.158;2022-10-16T18:00:28;19.10;48.50
728;DHT22;347;48.780;9.158;2022-10-16T18:02:54;19.10;48.50
728;DHT22;347;48.780;9.158;2022-10-16T18:05:19;19.10;48.50
728;DHT22;347;48.780;9.158;2022-10-16T18:07:45;19.00;48.10
728;DHT22;347;48.780;9.158;2022-10-16T18:10:11;19.00;48.10
728;DHT22;347;48.780;9.158;2022-10-16T18:12:36;19.00;47.90
728;DHT22;347;48.780;9.158;2022-10-16T18:15:02;19.00;47.80
728;DHT22;347;48.780;9.158;2022-10-16T18:17:28;19.00;47.70
728;DHT22;347;48.780;9.158;2022-10-16T18:19:55;19.00;47.60
728;DHT22;347;48.780;9.158;2022-10-16T18:22:21;19.00;47.60
728;DHT22;347;48.780;9.158;2022-10-16T18:24:48;19.00;48.00
728;DHT22;347;48.780;9.158;2022-10-16T18:27:13;19.00;48.00
728;DHT22;347;48.780;9.158;2022-10-16T18:29:39;18.90;48.00
728;DHT22;347;48.780;9.158;2022-10-16T18:32:04;18.90;47.90
728;DHT22;347;48.780;9.158;2022-10-16T18:34:30;18.90;48.00
728;DHT22;347;48.780;9.158;2022-10-16T18:37:00;18.90;48.00
728;DHT22;347;48.780;9.158;2022-10-16T18:39:25;18.90;47.90
728;DHT22;347;48.780;9.158;2022-10-16T18:41:51;18.90;48.00
728;DHT22;347;48.780;9.158;2022-10-16T18:44:24;18.90;48.00
728;DHT22;347;48.780;9.158;2022-10-16T18:46:50;18.80;48.00
728;DHT22;347;48.780;9.158;2022-10-16T18:49:16;18.80;48.00
728;DHT22;347;48.780;9.158;2022-10-16T18:51:42;18.80;48.20
728;DHT22;347;48.780;9.158;2022-10-16T18:54:10;18.80;48.00
728;DHT22;347;48.780;9.158;2022-10-16T18:56:36;18.70;48.00
728;DHT22;347;48.780;9.158;2022-10-16T18:59:05;18.70;48.20
728;DHT22;347;48.780;9.158;2022-10-16T19:01:33;18.70;48.20
728;DHT22;347;48.780;9.158;2022-10-16T19:04:11;18.70;48.40
728;DHT22;347;48.780;9.158;2022-10-16T19:06:40;18.70;48.80